Terminal Aerodrome Forecast
Issued by NWS Central Illinois

Home | Current Version | Previous Version | Text Only | Print | Product List | Glossary On
Versions: 1 2 3 4 5 6 7 8 9 10 11 12 13 14 15 16
130
FTUS43 KILX 090538
TAFPIA
TAF
KPIA 090538Z 0906/1006 29009KT P6SM OVC030
     FM091100 30008KT P6SM BKN035
     FM100000 27003KT P6SM BKN100=

USA.gov is the U.S. government's official web portal to all federal, state and local government web resources and services.